Time;durP1;ratioP1;P1;durP2;ratioP2;P2;SDS_P1;SDS_P2;PMS_P1;PMS_P2;Temp;Humidity;BMP_temperature;BMP_pressure;BME280_temperature;BME280_humidity;BME280_pressure;Samples;Min_cycle;Max_cycle;Signal;HPM_P1;HPM_P2
2021/11/30 00:00:30;;;;;;;7.22;3.35;;;11.20;66.10;;;;;;4178401;28;20120;-71
2021/11/30 00:02:33;;;;;;;4.90;2.85;;;11.20;66.10;;;;;;4187975;28;20113;-72
2021/11/30 00:04:36;;;;;;;4.97;3.20;;;11.20;66.10;;;;;;4176772;28;20053;-73
2021/11/30 00:06:39;;;;;;;5.00;3.20;;;11.20;66.10;;;;;;4186576;28;20120;-71
2021/11/30 00:08:57;;;;;;;4.00;2.53;;;11.20;66.10;;;;;;4184859;28;20112;-72
2021/11/30 00:11:01;;;;;;;4.78;2.95;;;11.20;66.00;;;;;;4179462;28;20120;-73
2021/11/30 00:13:04;;;;;;;5.78;3.08;;;11.20;66.10;;;;;;4188018;28;20289;-72
2021/11/30 00:15:09;;;;;;;7.40;3.10;;;11.20;66.10;;;;;;4175323;28;20072;-71
2021/11/30 00:17:13;;;;;;;3.90;2.83;;;11.20;66.10;;;;;;4173580;28;20116;-73
2021/11/30 00:19:16;;;;;;;4.10;2.77;;;11.20;66.10;;;;;;4178468;28;20075;-72
2021/11/30 00:21:19;;;;;;;4.07;3.00;;;11.20;66.10;;;;;;4182554;28;20610;-72
2021/11/30 00:23:22;;;;;;;5.85;3.05;;;11.20;66.10;;;;;;4190917;28;20059;-72
2021/11/30 00:25:25;;;;;;;4.93;3.13;;;11.20;66.10;;;;;;4178927;28;20333;-72
2021/11/30 00:27:30;;;;;;;3.42;2.67;;;11.20;66.10;;;;;;4190423;28;20273;-72
2021/11/30 00:29:33;;;;;;;5.68;3.00;;;11.20;66.10;;;;;;4186098;28;20112;-71
2021/11/30 00:31:38;;;;;;;3.95;2.67;;;11.20;66.10;;;;;;4181833;28;20072;-71
2021/11/30 00:33:41;;;;;;;4.13;2.70;;;11.20;66.10;;;;;;4190674;28;20405;-73
2021/11/30 00:35:44;;;;;;;7.28;3.20;;;11.20;66.10;;;;;;4178445;28;20053;-72
2021/11/30 00:37:48;;;;;;;4.50;2.90;;;11.20;66.10;;;;;;4190137;28;20286;-72
2021/11/30 00:39:51;;;;;;;6.07;3.03;;;11.20;66.10;;;;;;4187336;28;20067;-72
2021/11/30 00:41:58;;;;;;;5.03;3.17;;;11.20;66.10;;;;;;4180961;28;20075;-73
2021/11/30 00:44:01;;;;;;;5.35;2.95;;;11.20;66.10;;;;;;4190178;28;20072;-72
2021/11/30 00:46:17;;;;;;;3.35;2.40;;;11.20;66.10;;;;;;4178383;28;20120;-72
2021/11/30 00:48:29;;;;;;;3.67;2.75;;;11.20;66.10;;;;;;4173703;28;20080;-72
2021/11/30 00:50:32;;;;;;;5.30;2.90;;;11.20;66.10;;;;;;4178057;28;20053;-72
2021/11/30 00:52:35;;;;;;;4.93;2.65;;;11.20;66.20;;;;;;4183778;28;20376;-72
2021/11/30 00:54:39;;;;;;;5.00;2.70;;;11.20;66.10;;;;;;4189333;28;20112;-71
2021/11/30 00:56:44;;;;;;;4.10;2.80;;;11.20;66.10;;;;;;4178713;28;20085;-71
2021/11/30 00:58:47;;;;;;;;;;;11.20;66.20;;;;;;4190905;28;20127;-72
2021/11/30 01:00:50;;;;;;;5.45;2.80;;;11.20;66.10;;;;;;4184416;28;19984;-71
2021/11/30 01:02:53;;;;;;;4.82;2.70;;;11.20;66.10;;;;;;4183082;28;20052;-72
2021/11/30 01:04:58;;;;;;;5.90;2.97;;;11.20;66.20;;;;;;4189554;28;20052;-72
2021/11/30 01:07:02;;;;;;;3.35;2.55;;;11.20;66.20;;;;;;4177592;28;20108;-72
2021/11/30 01:09:06;;;;;;;3.55;2.50;;;11.20;66.20;;;;;;4190558;28;20112;-71
2021/11/30 01:11:09;;;;;;;6.00;2.87;;;11.20;66.20;;;;;;4185704;28;20208;-71
2021/11/30 01:13:13;;;;;;;4.22;2.38;;;11.20;66.20;;;;;;4180572;28;20490;-74
2021/11/30 01:15:19;;;;;;;3.47;2.70;;;11.20;66.20;;;;;;4173182;28;20290;-71
2021/11/30 01:17:22;;;;;;;4.38;2.65;;;11.20;66.20;;;;;;4184880;28;20112;-73
2021/11/30 01:19:25;;;;;;;5.63;2.78;;;11.20;66.20;;;;;;4173350;28;20483;-71
2021/11/30 01:21:29;;;;;;;4.00;2.70;;;11.20;66.20;;;;;;4177998;28;20216;-72
2021/11/30 01:23:32;;;;;;;4.85;2.63;;;11.20;66.20;;;;;;4180278;28;20113;-71
2021/11/30 01:25:36;;;;;;;3.88;2.63;;;11.20;66.30;;;;;;4173700;28;20108;-72
2021/11/30 01:27:39;;;;;;;6.32;2.58;;;11.20;66.20;;;;;;4176466;28;20069;-71
2021/11/30 01:29:42;;;;;;;3.25;2.63;;;11.20;66.30;;;;;;4189582;28;20068;-72
2021/11/30 01:31:45;;;;;;;5.50;2.55;;;11.20;66.20;;;;;;4185143;28;20064;-71
2021/11/30 01:33:49;;;;;;;4.65;2.70;;;11.20;66.20;;;;;;4181795;28;20295;-71
2021/11/30 01:35:52;;;;;;;4.53;2.95;;;11.20;66.30;;;;;;4188715;28;20116;-72
2021/11/30 01:37:56;;;;;;;4.25;2.60;;;11.20;66.30;;;;;;4177298;28;20076;-72
2021/11/30 01:40:00;;;;;;;4.70;2.40;;;11.20;66.30;;;;;;4189519;28;20112;-72
2021/11/30 01:42:03;;;;;;;4.47;2.47;;;11.20;66.30;;;;;;4185431;28;20339;-74
2021/11/30 01:44:11;;;;;;;8.57;3.65;;;11.20;66.30;;;;;;4181304;28;20112;-71
2021/11/30 01:49:17;;;;;;;4.38;2.28;;;11.20;66.30;;;;;;4184840;28;20072;-72
2021/11/30 01:50:45;;;;;;;4.53;2.53;;;11.20;66.40;;;;;;4182416;28;20055;-72
2021/11/30 01:52:50;;;;;;;3.08;2.35;;;11.20;66.40;;;;;;4181621;28;20056;-72
2021/11/30 01:54:55;;;;;;;3.17;2.22;;;11.20;66.40;;;;;;4172719;28;20112;-72
2021/11/30 01:56:58;;;;;;;4.88;2.45;;;11.20;66.40;;;;;;4174111;28;20072;-72
2021/11/30 01:59:03;;;;;;;3.60;2.22;;;11.20;66.50;;;;;;4183826;28;20293;-72
2021/11/30 02:01:06;;;;;;;6.05;2.22;;;11.20;66.50;;;;;;4172628;28;20146;-72
2021/11/30 02:03:11;;;;;;;3.30;2.38;;;11.20;66.50;;;;;;4180033;28;20055;-72
2021/11/30 02:05:14;;;;;;;4.13;2.13;;;11.20;66.60;;;;;;4177202;28;20072;-72
2021/11/30 02:07:17;;;;;;;3.65;2.40;;;11.20;66.50;;;;;;4173776;28;20136;-72
2021/11/30 02:09:20;;;;;;;4.38;2.65;;;11.20;66.50;;;;;;4183518;28;20120;-72
2021/11/30 02:11:25;;;;;;;3.55;2.30;;;11.20;66.50;;;;;;4172404;28;20112;-73
2021/11/30 02:13:28;;;;;;;;;;;11.20;66.50;;;;;;4174322;28;20088;-72
2021/11/30 02:15:37;;;;;;;3.60;2.53;;;11.20;66.50;;;;;;4183685;28;20161;-73
2021/11/30 02:17:40;;;;;;;4.80;2.25;;;11.20;66.60;;;;;;4187294;28;20120;-73
2021/11/30 02:19:52;;;;;;;4.20;2.40;;;11.20;66.60;;;;;;4177411;28;20112;-72
2021/11/30 02:21:56;;;;;;;3.70;2.28;;;11.20;66.60;;;;;;4188992;28;20075;-72
2021/11/30 02:23:59;;;;;;;3.35;2.13;;;11.20;66.70;;;;;;4180156;28;20075;-72
2021/11/30 02:26:07;;;;;;;4.70;2.72;;;11.20;66.60;;;;;;4185363;28;20112;-72
2021/11/30 02:28:10;;;;;;;4.07;2.28;;;11.20;66.70;;;;;;4187043;28;20124;-71
2021/11/30 02:30:13;;;;;;;3.72;2.25;;;11.20;66.70;;;;;;4177761;28;20112;-71
2021/11/30 02:32:17;;;;;;;3.28;2.40;;;11.20;66.60;;;;;;4188975;28;20084;-72
2021/11/30 02:34:20;;;;;;;5.25;2.38;;;11.20;66.70;;;;;;4180110;28;20112;-72
2021/11/30 02:36:29;;;;;;;3.85;2.80;;;11.20;66.70;;;;;;4185316;28;20075;-72
2021/11/30 02:38:32;;;;;;;3.58;2.40;;;11.20;66.70;;;;;;4186990;28;20075;-72
2021/11/30 02:40:36;;;;;;;4.05;2.58;;;11.20;66.70;;;;;;4177291;28;20065;-72
2021/11/30 02:42:39;;;;;;;4.80;2.45;;;11.20;66.70;;;;;;4188815;28;20345;-71
2021/11/30 02:44:43;;;;;;;3.50;2.30;;;11.20;66.70;;;;;;4179582;28;20511;-73
2021/11/30 02:46:49;;;;;;;5.07;2.35;;;11.20;66.70;;;;;;4185189;28;20064;-72
2021/11/30 02:48:52;;;;;;;3.55;2.35;;;11.20;66.70;;;;;;4186995;28;20080;-73
2021/11/30 02:50:57;;;;;;;4.38;2.50;;;11.20;66.70;;;;;;4177341;28;20045;-71
2021/11/30 02:53:01;;;;;;;3.72;2.42;;;11.20;66.80;;;;;;4188402;28;20064;-72
2021/11/30 02:55:04;;;;;;;4.13;2.75;;;11.20;66.70;;;;;;4179090;28;20091;-72
2021/11/30 02:57:09;;;;;;;4.53;2.75;;;11.20;66.80;;;;;;4185161;28;20065;-71
2021/11/30 02:59:12;;;;;;;;;;;11.20;66.80;;;;;;4187517;28;20048;-72
2021/11/30 03:01:15;;;;;;;4.30;2.42;;;11.20;66.80;;;;;;4177170;28;19923;-71
2021/11/30 03:03:19;;;;;;;4.43;2.13;;;11.20;66.80;;;;;;4188483;28;20080;-72
2021/11/30 03:05:22;;;;;;;4.07;2.58;;;11.20;66.80;;;;;;4182837;28;20352;-73
2021/11/30 03:07:27;;;;;;;4.60;2.63;;;11.20;66.80;;;;;;4175097;28;20116;-72
2021/11/30 03:09:31;;;;;;;4.50;2.17;;;11.20;66.80;;;;;;4173126;28;20065;-71
2021/11/30 03:11:34;;;;;;;3.60;2.47;;;11.20;66.80;;;;;;4183036;28;20076;-72
2021/11/30 03:13:38;;;;;;;3.67;2.40;;;11.20;66.80;;;;;;4171872;28;20076;-71
2021/11/30 03:15:41;;;;;;;4.03;2.58;;;11.20;66.90;;;;;;4181083;28;20344;-71
2021/11/30 03:17:44;;;;;;;3.63;2.38;;;11.20;66.80;;;;;;4179139;28;20404;-72
2021/11/30 03:19:48;;;;;;;4.50;2.40;;;11.20;66.90;;;;;;4176386;28;20345;-71
2021/11/30 03:21:51;;;;;;;4.50;2.78;;;11.20;66.90;;;;;;4190657;28;20108;-72
2021/11/30 03:23:54;;;;;;;4.88;2.53;;;11.20;66.90;;;;;;4192333;28;20064;-73
2021/11/30 03:25:58;;;;;;;3.53;2.20;;;11.20;66.90;;;;;;4184094;28;20057;-73
2021/11/30 03:28:01;;;;;;;2.90;2.03;;;11.20;66.90;;;;;;4187249;28;20116;-73
2021/11/30 03:30:07;;;;;;;3.85;2.65;;;11.20;66.90;;;;;;4188921;28;20104;-73
2021/11/30 03:32:12;;;;;;;3.10;2.17;;;11.20;67.00;;;;;;4179903;28;20112;-72
2021/11/30 03:34:18;;;;;;;4.45;2.72;;;11.20;67.00;;;;;;4189717;28;20060;-72
2021/11/30 03:36:21;;;;;;;4.50;2.53;;;11.20;67.00;;;;;;4180591;28;20076;-72
2021/11/30 03:38:24;;;;;;;4.28;2.45;;;11.20;66.90;;;;;;4184684;28;20400;-72
2021/11/30 03:40:27;;;;;;;3.75;2.78;;;11.20;66.90;;;;;;4187254;28;20109;-72
2021/11/30 03:42:32;;;;;;;4.05;2.35;;;11.20;66.90;;;;;;4177017;28;20065;-72
2021/11/30 03:44:35;;;;;;;2.70;1.85;;;11.20;67.00;;;;;;4188345;28;20112;-72
2021/11/30 03:46:38;;;;;;;2.97;2.35;;;11.20;67.00;;;;;;4180221;28;20288;-72
2021/11/30 03:48:42;;;;;;;3.88;2.55;;;11.20;67.00;;;;;;4183813;28;20290;-73
2021/11/30 03:50:44;;;;;;;4.72;2.95;;;11.20;67.00;;;;;;4186586;28;20104;-72
2021/11/30 03:52:48;;;;;;;4.18;2.40;;;11.20;67.00;;;;;;4179853;28;20060;-72
2021/11/30 03:54:51;;;;;;;2.80;2.35;;;11.20;67.00;;;;;;4190122;28;20116;-71
2021/11/30 03:56:54;;;;;;;3.40;2.47;;;11.20;67.00;;;;;;4184005;28;20065;-71
2021/11/30 03:58:58;;;;;;;4.10;2.80;;;11.20;67.00;;;;;;4186091;28;20096;-74
2021/11/30 04:01:01;;;;;;;4.07;2.60;;;11.20;67.00;;;;;;4189450;28;20052;-72
2021/11/30 04:03:05;;;;;;;4.28;2.60;;;11.20;67.00;;;;;;4179745;28;20084;-71
2021/11/30 04:05:09;;;;;;;5.28;2.55;;;11.20;67.10;;;;;;4190955;28;20383;-72
2021/11/30 04:07:14;;;;;;;4.55;2.58;;;11.20;67.10;;;;;;4183751;28;20060;-71
2021/11/30 04:09:17;;;;;;;3.78;2.65;;;11.20;67.10;;;;;;4185601;28;20075;-72
2021/11/30 04:11:21;;;;;;;6.28;2.63;;;11.20;67.10;;;;;;4189352;28;20059;-72
2021/11/30 04:13:24;;;;;;;4.85;2.50;;;11.20;67.10;;;;;;4179444;28;20053;-71
2021/11/30 04:15:29;;;;;;;3.22;2.17;;;11.20;67.20;;;;;;4190692;28;20049;-71
2021/11/30 04:17:33;;;;;;;5.50;2.75;;;11.20;67.20;;;;;;4186763;28;20112;-72
2021/11/30 04:19:36;;;;;;;3.58;2.55;;;11.20;67.20;;;;;;4179686;28;20388;-72
2021/11/30 04:21:39;;;;;;;4.72;2.95;;;11.20;67.30;;;;;;4175447;28;20073;-72
2021/11/30 04:23:42;;;;;;;3.80;2.33;;;11.20;67.30;;;;;;4185862;28;20069;-72
2021/11/30 04:25:45;;;;;;;3.00;2.45;;;11.20;67.30;;;;;;4174997;28;20109;-72
2021/11/30 04:27:48;;;;;;;3.72;2.45;;;11.20;67.30;;;;;;4180052;28;20075;-72
2021/11/30 04:29:51;;;;;;;3.35;2.55;;;11.20;67.40;;;;;;4180151;28;20183;-72
2021/11/30 04:31:55;;;;;;;2.97;2.53;;;11.20;67.40;;;;;;4174732;28;20080;-72
2021/11/30 04:33:59;;;;;;;4.03;2.25;;;11.20;67.40;;;;;;4185269;28;20115;-71
2021/11/30 04:36:05;;;;;;;3.28;2.35;;;11.20;67.50;;;;;;4174004;28;20059;-72
2021/11/30 04:38:08;;;;;;;3.33;2.60;;;11.20;67.50;;;;;;4179729;28;20079;-71
2021/11/30 04:40:12;;;;;;;3.28;2.55;;;11.20;67.50;;;;;;4180596;28;20471;-71
2021/11/30 04:42:15;;;;;;;4.85;3.15;;;11.20;67.60;;;;;;4174771;28;20073;-72
2021/11/30 04:44:20;;;;;;;3.15;2.30;;;11.20;67.60;;;;;;4186749;28;20364;-74
2021/11/30 04:46:28;;;;;;;4.80;2.42;;;11.20;67.60;;;;;;4190358;28;20298;-71
2021/11/30 04:48:34;;;;;;;4.53;2.75;;;11.20;67.60;;;;;;4183713;28;20218;-72
2021/11/30 04:50:42;;;;;;;2.80;2.17;;;11.20;67.70;;;;;;4184446;28;20108;-70
2021/11/30 04:52:46;;;;;;;4.68;2.83;;;11.20;67.60;;;;;;4188579;28;20108;-72
2021/11/30 04:54:50;;;;;;;4.25;2.72;;;11.20;67.70;;;;;;4178859;28;20069;-73
2021/11/30 04:56:53;;;;;;;3.97;2.65;;;11.20;67.70;;;;;;4190028;28;20104;-72
2021/11/30 04:58:57;;;;;;;4.78;2.67;;;11.20;67.80;;;;;;4183111;28;20262;-72
2021/11/30 05:01:00;;;;;;;3.80;2.40;;;11.20;67.70;;;;;;4184770;28;20286;-72
2021/11/30 05:03:05;;;;;;;5.00;3.13;;;11.20;67.80;;;;;;4188320;28;20112;-72
2021/11/30 05:05:13;;;;;;;;;;;11.20;67.80;;;;;;4178220;28;20068;-71
2021/11/30 05:07:16;;;;;;;4.07;2.63;;;11.20;67.90;;;;;;4190170;28;19983;-72
2021/11/30 05:09:19;;;;;;;3.53;2.55;;;11.20;67.90;;;;;;4184725;28;20083;-71
2021/11/30 05:11:22;;;;;;;3.63;2.50;;;11.20;68.00;;;;;;4178409;28;20053;-73
2021/11/30 05:13:25;;;;;;;4.15;2.65;;;11.20;67.90;;;;;;4173959;28;20089;-71
2021/11/30 05:15:29;;;;;;;4.63;3.00;;;11.20;67.90;;;;;;4178507;28;20069;-71
2021/11/30 05:17:32;;;;;;;4.57;2.70;;;11.20;67.90;;;;;;4189784;28;20073;-72
2021/11/30 05:19:35;;;;;;;3.95;2.50;;;11.20;68.00;;;;;;4183218;28;20299;-72
2021/11/30 05:21:39;;;;;;;3.53;2.50;;;11.20;68.00;;;;;;4184170;28;20117;-72
2021/11/30 05:23:42;;;;;;;3.42;2.50;;;11.20;67.90;;;;;;4188354;28;20052;-72
2021/11/30 05:25:45;;;;;;;3.25;2.15;;;11.20;68.00;;;;;;4178513;28;20125;-73
2021/11/30 05:27:49;;;;;;;3.60;2.53;;;11.20;68.00;;;;;;4189937;28;20116;-72
2021/11/30 05:29:52;;;;;;;4.10;2.92;;;11.20;68.20;;;;;;4183290;28;20076;-73
2021/11/30 05:31:55;;;;;;;4.05;2.72;;;11.20;68.00;;;;;;4183511;28;20072;-73
2021/11/30 05:33:59;;;;;;;4.57;2.35;;;11.20;68.10;;;;;;4188483;28;20125;-71
2021/11/30 05:36:03;;;;;;;3.67;2.53;;;11.20;68.20;;;;;;4185899;28;20095;-73
2021/11/30 05:38:07;;;;;;;3.45;1.92;;;11.20;68.20;;;;;;4189608;28;20077;-72
2021/11/30 05:40:11;;;;;;;4.03;2.55;;;11.20;68.20;;;;;;4182380;28;20346;-72
2021/11/30 05:42:14;;;;;;;3.00;1.73;;;11.20;68.30;;;;;;4183143;28;20084;-72
2021/11/30 05:44:17;;;;;;;3.28;2.50;;;11.20;68.20;;;;;;4188434;28;20079;-72
2021/11/30 05:46:21;;;;;;;4.75;2.28;;;11.20;68.30;;;;;;4177675;28;20069;-72
2021/11/30 05:48:24;;;;;;;6.78;2.50;;;11.20;68.30;;;;;;4189187;28;20116;-71
2021/11/30 05:50:27;;;;;;;3.13;2.20;;;11.20;68.40;;;;;;4183609;28;20053;-71
2021/11/30 05:52:30;;;;;;;3.50;2.20;;;11.20;68.30;;;;;;4182198;28;20053;-72
2021/11/30 05:54:36;;;;;;;4.65;2.30;;;11.20;68.40;;;;;;4188962;28;20079;-71
2021/11/30 05:56:41;;;;;;;3.53;2.30;;;11.20;68.40;;;;;;4187449;28;20119;-72
2021/11/30 05:58:45;;;;;;;4.57;2.60;;;11.20;68.50;;;;;;4172549;28;20385;-72
2021/11/30 06:00:49;;;;;;;3.15;2.45;;;11.20;68.50;;;;;;4177739;28;20111;-73
2021/11/30 06:02:59;;;;;;;3.60;2.45;;;11.20;68.50;;;;;;4179624;28;20091;-72
2021/11/30 06:05:03;;;;;;;2.63;2.28;;;11.20;68.60;;;;;;4173751;28;20069;-73
2021/11/30 06:07:06;;;;;;;3.83;2.78;;;11.20;68.60;;;;;;4174987;28;20076;-72
2021/11/30 06:09:10;;;;;;;2.45;2.00;;;11.20;68.60;;;;;;4189584;28;20112;-71
2021/11/30 06:11:14;;;;;;;3.95;2.42;;;11.20;68.60;;;;;;4184336;28;20108;-72
2021/11/30 06:13:17;;;;;;;3.58;2.00;;;11.20;68.60;;;;;;4178797;28;20117;-72
2021/11/30 06:15:21;;;;;;;3.95;1.85;;;11.20;69.30;;;;;;4172232;28;20053;-72
2021/11/30 06:17:24;;;;;;;3.50;2.30;;;11.20;68.80;;;;;;4187206;28;20053;-71
2021/11/30 06:19:28;;;;;;;4.55;2.20;;;11.20;68.80;;;;;;4172377;28;20112;-73
2021/11/30 06:21:33;;;;;;;2.65;2.30;;;11.20;68.80;;;;;;4177487;28;20068;-72
2021/11/30 06:23:36;;;;;;;5.30;1.90;;;11.20;68.80;;;;;;4178838;28;20125;-71
2021/11/30 06:25:41;;;;;;;3.00;2.30;;;11.20;68.80;;;;;;4172736;28;20059;-73
2021/11/30 06:27:45;;;;;;;2.90;1.90;;;11.20;68.70;;;;;;4183540;28;20055;-72
2021/11/30 06:29:48;;;;;;;4.22;2.42;;;11.20;68.80;;;;;;4172062;28;20394;-71
2021/11/30 06:31:51;;;;;;;4.80;2.42;;;11.20;68.90;;;;;;4177129;28;20104;-71
2021/11/30 06:33:54;;;;;;;3.58;2.10;;;11.20;68.90;;;;;;4179031;28;20069;-71
2021/11/30 06:35:58;;;;;;;4.78;2.40;;;11.20;68.90;;;;;;4172374;28;20266;-72
2021/11/30 06:38:01;;;;;;;3.70;2.25;;;11.20;69.00;;;;;;4183684;28;20053;-71
2021/11/30 06:40:05;;;;;;;5.10;2.80;;;11.20;68.90;;;;;;4171883;28;20080;-72
2021/11/30 06:42:08;;;;;;;4.63;2.30;;;11.30;69.00;;;;;;4176449;28;20356;-72
2021/11/30 06:44:12;;;;;;;2.28;2.00;;;11.20;69.00;;;;;;4179454;28;20069;-71
2021/11/30 06:46:16;;;;;;;3.03;2.35;;;11.20;69.10;;;;;;4172046;28;20113;-73
2021/11/30 06:48:20;;;;;;;4.55;2.25;;;11.30;69.10;;;;;;4186875;28;20132;-72
2021/11/30 06:50:23;;;;;;;4.68;2.35;;;11.20;69.10;;;;;;4172528;28;20077;-71
2021/11/30 06:52:27;;;;;;;3.42;2.28;;;11.20;69.10;;;;;;4176392;28;20068;-72
2021/11/30 06:54:30;;;;;;;3.33;2.40;;;11.20;69.10;;;;;;4179725;28;20053;-71
2021/11/30 06:56:33;;;;;;;3.22;2.17;;;11.20;69.10;;;;;;4172055;28;20359;-73
2021/11/30 06:58:37;;;;;;;3.85;2.30;;;11.20;69.10;;;;;;4177035;28;20120;-72
2021/11/30 07:00:42;;;;;;;3.13;2.10;;;11.20;69.20;;;;;;4188531;28;20116;-72
2021/11/30 07:02:45;;;;;;;4.03;2.13;;;11.20;69.10;;;;;;4183939;28;20241;-73
2021/11/30 07:04:52;;;;;;;4.60;2.40;;;11.30;69.30;;;;;;4180430;28;20053;-72
2021/11/30 07:07:06;;;;;;;3.15;2.13;;;11.20;69.30;;;;;;4188064;28;20073;-71
2021/11/30 07:09:33;;;;;;;4.32;2.28;;;11.30;69.30;;;;;;4173703;28;20076;-71
2021/11/30 07:11:53;;;;;;;3.38;2.53;;;11.20;69.30;;;;;;4188288;28;20059;-72
2021/11/30 07:13:56;;;;;;;3.25;2.13;;;11.20;69.40;;;;;;4184161;28;20308;-72
2021/11/30 07:16:03;;;;;;;4.07;2.17;;;11.20;69.30;;;;;;4172543;28;20057;-71
2021/11/30 07:18:07;;;;;;;3.60;2.22;;;11.20;69.50;;;;;;4174768;28;20160;-71
2021/11/30 07:20:11;;;;;;;4.53;2.20;;;11.20;69.40;;;;;;4180770;28;20138;-71
2021/11/30 07:22:14;;;;;;;3.40;2.38;;;11.20;69.40;;;;;;4171875;28;20073;-71
2021/11/30 07:24:17;;;;;;;3.03;2.17;;;11.20;69.50;;;;;;4183035;28;20069;-72
2021/11/30 07:26:20;;;;;;;3.53;2.05;;;11.30;69.50;;;;;;4173691;28;20265;-72
2021/11/30 07:28:31;;;;;;;3.75;2.17;;;11.20;69.50;;;;;;4176666;28;20061;-72
2021/11/30 07:30:35;;;;;;;2.35;1.90;;;11.20;69.50;;;;;;4183735;28;20073;-72
2021/11/30 07:32:39;;;;;;;4.38;2.38;;;11.30;69.50;;;;;;4175956;28;20054;-71
2021/11/30 07:34:43;;;;;;;4.53;2.55;;;11.30;69.50;;;;;;4186985;28;20053;-72
2021/11/30 07:36:46;;;;;;;5.05;2.47;;;11.30;69.70;;;;;;4190674;28;20214;-72
2021/11/30 07:38:49;;;;;;;2.70;2.17;;;11.30;69.60;;;;;;4188442;28;20249;-73
2021/11/30 07:40:52;;;;;;;2.55;2.33;;;11.20;69.60;;;;;;4181281;28;20048;-72
2021/11/30 07:42:55;;;;;;;3.78;2.60;;;11.30;69.80;;;;;;4191425;28;20087;-72
2021/11/30 07:44:59;;;;;;;3.17;2.55;;;11.30;70.30;;;;;;4179262;28;20056;-72
2021/11/30 07:47:03;;;;;;;4.97;3.20;;;11.30;70.10;;;;;;4189216;28;20056;-73
2021/11/30 07:49:11;;;;;;;4.10;2.63;;;11.30;70.60;;;;;;4188224;28;20053;-72
2021/11/30 07:51:17;;;;;;;5.15;2.42;;;11.30;70.80;;;;;;4190967;28;20384;-73
2021/11/30 07:53:20;;;;;;;5.65;3.30;;;11.30;71.00;;;;;;4188719;28;20096;-72
2021/11/30 07:55:24;;;;;;;6.25;3.53;;;11.30;72.60;;;;;;4190015;28;20049;-72
2021/11/30 07:57:27;;;;;;;7.30;2.90;;;11.40;72.80;;;;;;4190502;28;20056;-72
2021/11/30 07:59:31;;;;;;;5.50;3.00;;;11.40;72.70;;;;;;4189421;28;20065;-72
2021/11/30 08:01:34;;;;;;;6.20;3.50;;;11.40;72.50;;;;;;4190701;28;20049;-72
2021/11/30 08:03:38;;;;;;;6.47;3.33;;;11.40;72.40;;;;;;4188215;28;20076;-72
2021/11/30 08:05:42;;;;;;;5.97;3.25;;;11.40;72.10;;;;;;4190179;28;20049;-72
2021/11/30 08:07:50;;;;;;;6.20;3.83;;;11.40;71.70;;;;;;4190081;28;20049;-73
2021/11/30 08:09:55;;;;;;;8.60;3.40;;;11.40;72.10;;;;;;4190486;28;20087;-73
2021/11/30 08:11:58;;;;;;;11.48;3.72;;;11.40;72.50;;;;;;4189177;28;20064;-72
2021/11/30 08:14:01;;;;;;;4.85;2.90;;;11.40;72.90;;;;;;4191644;28;20068;-71
2021/11/30 08:16:04;;;;;;;5.32;3.50;;;11.40;73.00;;;;;;4202437;28;20116;-71
2021/11/30 08:18:09;;;;;;;6.40;3.28;;;11.50;73.30;;;;;;4191336;28;20116;-67
2021/11/30 08:20:13;;;;;;;10.50;3.60;;;11.60;72.70;;;;;;4191373;28;20120;-74
2021/11/30 08:22:18;;;;;;;;;;;11.60;73.30;;;;;;4186510;28;20052;-72
2021/11/30 08:24:24;;;;;;;8.07;3.90;;;11.60;73.40;;;;;;4189308;28;19937;-72
2021/11/30 08:26:28;;;;;;;12.63;4.25;;;11.60;73.80;;;;;;4178513;28;20077;-72
2021/11/30 08:28:31;;;;;;;8.10;3.55;;;11.70;73.40;;;;;;4182193;28;20049;-67
2021/11/30 08:30:34;;;;;;;8.05;3.65;;;11.70;73.90;;;;;;4190154;28;20083;-66
2021/11/30 08:32:40;;;;;;;9.48;3.63;;;11.80;73.60;;;;;;4190692;28;20103;-65
2021/11/30 08:34:43;;;;;;;8.93;4.00;;;11.90;74.50;;;;;;4191033;28;20057;-67
2021/11/30 08:36:46;;;;;;;13.02;4.55;;;12.00;74.10;;;;;;4186262;28;20069;-64
2021/11/30 08:38:51;;;;;;;12.20;4.47;;;12.10;73.20;;;;;;4190003;28;20342;-66
2021/11/30 08:40:56;;;;;;;14.43;4.00;;;12.10;73.30;;;;;;4184394;28;20072;-65
2021/11/30 08:43:00;;;;;;;9.50;4.20;;;12.10;72.80;;;;;;4188900;28;20079;-65
2021/11/30 08:45:06;;;;;;;9.93;3.90;;;12.10;73.00;;;;;;4177114;28;20402;-69
2021/11/30 08:47:11;;;;;;;5.47;3.67;;;12.10;73.50;;;;;;4184692;28;20401;-71
2021/11/30 08:49:15;;;;;;;11.27;3.95;;;12.10;73.60;;;;;;4188443;28;20049;-68
2021/11/30 08:51:18;;;;;;;15.30;4.10;;;12.20;73.80;;;;;;4187850;28;20057;-71
2021/11/30 08:53:23;;;;;;;9.15;4.55;;;12.30;74.40;;;;;;4190406;28;20045;-72
2021/11/30 08:55:28;;;;;;;7.50;4.22;;;12.30;73.40;;;;;;4187927;28;20116;-71
2021/11/30 08:57:37;;;;;;;9.43;4.38;;;12.30;73.30;;;;;;4188315;28;20072;-70
2021/11/30 08:59:40;;;;;;;7.05;3.80;;;12.30;73.40;;;;;;4191102;28;20049;-69
2021/11/30 09:01:44;;;;;;;7.22;4.10;;;12.30;73.30;;;;;;4185134;28;20053;-68
2021/11/30 09:03:47;;;;;;;9.43;4.50;;;12.30;73.20;;;;;;4190207;28;20337;-69
2021/11/30 09:05:56;;;;;;;9.27;5.03;;;12.30;73.20;;;;;;4188830;28;20069;-72
2021/11/30 09:07:59;;;;;;;11.95;4.50;;;12.30;73.30;;;;;;4188959;28;20297;-69
2021/11/30 09:10:04;;;;;;;10.63;4.13;;;12.20;73.20;;;;;;4190260;28;20080;-70
2021/11/30 09:12:09;;;;;;;11.77;4.90;;;12.30;73.20;;;;;;4184956;28;20065;-72
2021/11/30 09:14:18;;;;;;;9.50;4.95;;;12.30;73.40;;;;;;4181690;28;20341;-69
2021/11/30 09:16:22;;;;;;;10.82;4.65;;;12.30;73.40;;;;;;4189255;28;20095;-68
2021/11/30 09:18:29;;;;;;;8.50;4.55;;;12.30;73.50;;;;;;4178921;28;20095;-71
2021/11/30 09:20:33;;;;;;;8.10;4.43;;;12.30;73.50;;;;;;4177011;28;20080;-70
2021/11/30 09:22:36;;;;;;;9.63;4.22;;;12.30;73.30;;;;;;4186779;28;20401;-70
2021/11/30 09:24:39;;;;;;;9.38;4.68;;;12.30;73.70;;;;;;4180040;28;20053;-69
2021/11/30 09:26:43;;;;;;;12.88;5.13;;;12.40;73.70;;;;;;4174177;28;20065;-69
2021/11/30 09:28:47;;;;;;;11.30;4.60;;;12.30;73.50;;;;;;4188118;28;20112;-71
2021/11/30 09:30:50;;;;;;;8.38;4.90;;;12.40;73.60;;;;;;4175279;28;20089;-70
2021/11/30 09:33:14;;;;;;;11.15;4.90;;;12.40;73.70;;;;;;4181903;28;20211;-69
2021/11/30 09:35:20;;;;;;;13.90;5.00;;;12.40;74.10;;;;;;4173537;28;20140;-73
2021/11/30 09:37:23;;;;;;;11.23;5.15;;;12.40;74.20;;;;;;4174467;28;20104;-69
2021/11/30 09:39:26;;;;;;;15.70;5.60;;;12.40;74.30;;;;;;4184669;28;20073;-71
2021/11/30 09:41:31;;;;;;;10.98;5.40;;;12.40;74.50;;;;;;4172235;28;20362;-70
2021/11/30 09:43:37;;;;;;;10.98;5.95;;;12.40;74.90;;;;;;4182298;28;20053;-71
2021/11/30 09:45:42;;;;;;;20.70;6.63;;;12.40;75.30;;;;;;4190381;28;20053;-70
2021/11/30 09:47:46;;;;;;;25.35;6.25;;;12.40;75.40;;;;;;4175786;28;20275;-68
2021/11/30 09:49:49;;;;;;;11.65;6.28;;;12.50;75.60;;;;;;4188581;28;20068;-68
2021/11/30 09:51:52;;;;;;;14.70;5.63;;;12.50;75.50;;;;;;4189591;28;20300;-70
2021/11/30 09:53:55;;;;;;;11.00;5.78;;;12.50;75.40;;;;;;4186100;28;20113;-70
2021/11/30 09:55:58;;;;;;;13.38;6.40;;;12.50;75.50;;;;;;4188582;28;20068;-73
2021/11/30 09:58:01;;;;;;;16.35;5.70;;;12.50;75.50;;;;;;4181732;28;20237;-68
2021/11/30 10:00:07;;;;;;;18.83;7.05;;;12.50;75.60;;;;;;4174605;28;20128;-68
2021/11/30 10:02:29;;;;;;;18.17;6.60;;;12.50;75.90;;;;;;4172426;28;20061;-70
2021/11/30 10:04:35;;;;;;;;;;;12.60;75.90;;;;;;4178527;28;20116;-70
2021/11/30 10:06:38;;;;;;;17.48;6.38;;;12.60;75.90;;;;;;4188871;28;19944;-70
2021/11/30 10:08:43;;;;;;;14.20;6.55;;;12.60;76.00;;;;;;4187044;28;20471;-71
2021/11/30 10:10:46;;;;;;;11.25;6.50;;;12.60;76.20;;;;;;4179217;28;20284;-69
2021/11/30 10:13:07;;;;;;;11.55;6.78;;;12.60;75.90;;;;;;4189325;28;20136;-69
2021/11/30 10:15:12;;;;;;;10.10;6.13;;;12.70;76.00;;;;;;4187105;28;20131;-69
2021/11/30 10:17:22;;;;;;;12.52;6.72;;;12.70;75.80;;;;;;4176415;28;20056;-69
2021/11/30 10:19:29;;;;;;;12.02;6.47;;;12.70;75.80;;;;;;4184878;28;20281;-67
2021/11/30 10:21:33;;;;;;;11.77;6.90;;;12.70;75.70;;;;;;4186570;28;20045;-69
2021/11/30 10:23:44;;;;;;;11.40;6.75;;;12.70;75.60;;;;;;4185399;28;20120;-69
2021/11/30 10:25:48;;;;;;;16.88;6.95;;;12.70;75.60;;;;;;4189082;28;20332;-72
2021/11/30 10:27:53;;;;;;;11.43;6.10;;;12.70;75.60;;;;;;4190807;28;20069;-70
2021/11/30 10:29:56;;;;;;;9.20;5.97;;;12.70;75.90;;;;;;4183237;28;20048;-68
2021/11/30 10:31:59;;;;;;;10.13;6.82;;;12.80;75.90;;;;;;4175733;28;20072;-69
2021/11/30 10:34:11;;;;;;;21.05;6.32;;;12.80;75.90;;;;;;4173509;28;20069;-77
2021/11/30 10:36:16;;;;;;;12.13;6.35;;;12.80;76.00;;;;;;4177834;28;20104;-68
2021/11/30 10:38:22;;;;;;;12.70;6.40;;;12.80;75.90;;;;;;4188067;28;20064;-67
2021/11/30 10:40:30;;;;;;;11.23;6.40;;;12.90;75.90;;;;;;4180282;28;20140;-68
2021/11/30 10:42:33;;;;;;;9.82;5.68;;;12.90;75.90;;;;;;4184668;28;20128;-68
2021/11/30 10:44:36;;;;;;;10.20;6.05;;;12.90;75.90;;;;;;4187523;28;20369;-68
2021/11/30 10:46:39;;;;;;;14.18;5.18;;;12.90;75.90;;;;;;4174663;28;20049;-68
2021/11/30 10:48:43;;;;;;;10.30;5.63;;;12.90;75.80;;;;;;4188985;28;20349;-69
2021/11/30 10:50:49;;;;;;;15.52;5.70;;;13.00;75.70;;;;;;4183616;28;20069;-75